createdAt,value
2022-08-05T00:01:28.633Z,21.97
2022-08-05T00:03:57.158Z,21.69
2022-08-05T00:06:32.494Z,21.69
2022-08-05T00:08:58.375Z,21.93
2022-08-05T00:11:34.846Z,21.85
2022-08-05T00:14:00.577Z,21.85
2022-08-05T00:16:35.467Z,21.86
2022-08-05T00:19:03.626Z,21.80
2022-08-05T00:21:36.013Z,21.93
2022-08-05T00:24:10.279Z,21.65
2022-08-05T00:26:38.470Z,21.69
2022-08-05T00:29:08.245Z,21.55
2022-08-05T00:31:54.290Z,21.62
2022-08-05T00:34:53.547Z,21.47
2022-08-05T00:37:12.908Z,21.42
2022-08-05T00:39:14.305Z,21.60
2022-08-05T00:41:54.885Z,21.69
2022-08-05T00:44:18.240Z,21.71
2022-08-05T00:46:54.291Z,21.87
2022-08-05T00:49:21.526Z,21.87
2022-08-05T00:51:52.400Z,21.77
2022-08-05T00:54:22.877Z,21.82
2022-08-05T00:56:54.347Z,21.72
2022-08-05T00:59:24.490Z,21.41
2022-08-05T01:01:54.309Z,21.41
2022-08-05T01:04:26.847Z,21.52
2022-08-05T01:06:55.635Z,21.68
2022-08-05T01:09:25.469Z,21.63
2022-08-05T01:12:04.775Z,21.46
2022-08-05T01:14:39.873Z,21.66
2022-08-05T01:17:25.710Z,21.35
2022-08-05T01:20:03.581Z,21.59
2022-08-05T01:22:57.305Z,21.29
2022-08-05T01:25:59.875Z,21.28
2022-08-05T01:28:35.510Z,21.19
2022-08-05T01:31:44.564Z,21.32
2022-08-05T01:34:26.757Z,21.37
2022-08-05T01:37:05.187Z,21.25
2022-08-05T01:39:46.048Z,21.25
2022-08-05T01:42:13.863Z,21.17
2022-08-05T01:44:54.309Z,21.11
2022-08-05T01:47:21.577Z,21.28
2022-08-05T01:50:02.296Z,21.16
2022-08-05T01:52:27.797Z,21.32
2022-08-05T01:55:00.921Z,21.32
2022-08-05T01:58:18.772Z,21.36
2022-08-05T02:00:11.559Z,21.20
2022-08-05T02:02:46.549Z,21.29
2022-08-05T02:05:15.645Z,21.13
2022-08-05T02:07:56.308Z,21.18
2022-08-05T02:10:18.085Z,21.29
2022-08-05T02:12:55.788Z,21.33
2022-08-05T02:15:33.513Z,21.32
2022-08-05T02:18:31.766Z,21.43
2022-08-05T02:20:55.551Z,21.06
2022-08-05T02:23:30.095Z,21.06
2022-08-05T02:26:04.313Z,21.06
2022-08-05T02:28:41.673Z,20.96
2022-08-05T02:31:22.351Z,20.89
2022-08-05T02:33:57.207Z,21.13
2022-08-05T02:36:31.676Z,21.13
2022-08-05T02:39:01.142Z,21.22
2022-08-05T02:41:42.819Z,21.00
2022-08-05T02:44:13.527Z,20.93
2022-08-05T02:46:53.286Z,21.05
2022-08-05T02:49:18.601Z,20.96
2022-08-05T02:52:04.471Z,20.96
2022-08-05T02:54:36.374Z,21.13
2022-08-05T02:56:55.935Z,21.14
2022-08-05T02:59:27.834Z,21.11
2022-08-05T03:02:00.569Z,21.23
2022-08-05T03:04:30.788Z,21.07
2022-08-05T03:07:00.708Z,21.18
2022-08-05T03:09:38.196Z,21.20
2022-08-05T03:12:02.894Z,21.25
2022-08-05T03:14:32.961Z,21.27
2022-08-05T03:17:07.334Z,21.32
2022-08-05T03:19:36.114Z,21.35
2022-08-05T03:22:16.380Z,21.10
2022-08-05T03:24:38.304Z,21.18
2022-08-05T03:27:08.260Z,21.14
2022-08-05T03:29:45.821Z,21.00
2022-08-05T03:32:14.347Z,20.94
2022-08-05T03:34:50.820Z,21.02
2022-08-05T03:37:17.530Z,20.78
2022-08-05T03:39:59.096Z,20.95
2022-08-05T03:42:31.991Z,20.69
2022-08-05T03:45:01.500Z,20.88
2022-08-05T03:47:35.462Z,20.76
2022-08-05T03:50:03.792Z,20.97
2022-08-05T03:55:11.370Z,20.69
2022-08-05T03:56:05.518Z,20.87
2022-08-05T03:57:46.703Z,20.93
2022-08-05T04:00:17.251Z,21.05
2022-08-05T04:02:57.777Z,20.95
2022-08-05T04:05:23.104Z,20.82
2022-08-05T04:07:57.995Z,21.03
2022-08-05T04:10:24.517Z,21.11
2022-08-05T04:12:58.888Z,21.09
2022-08-05T04:15:32.969Z,21.07
2022-08-05T04:18:03.797Z,21.02
2022-08-05T04:20:35.268Z,20.95
2022-08-05T04:23:05.476Z,20.77
2022-08-05T04:25:56.592Z,20.78
2022-08-05T04:28:11.351Z,20.85
2022-08-05T04:30:39.593Z,20.86
2022-08-05T04:33:09.429Z,20.79
2022-08-05T04:36:11.276Z,20.79
2022-08-05T04:38:12.030Z,20.73
2022-08-05T04:40:47.881Z,20.78
2022-08-05T04:43:16.482Z,20.93
2022-08-05T04:45:48.953Z,20.92
2022-08-05T04:48:18.482Z,20.98
2022-08-05T04:51:03.237Z,21.13
2022-08-05T04:53:22.713Z,21.13
2022-08-05T04:56:32.979Z,21.18
2022-08-05T04:58:24.324Z,21.11
2022-08-05T05:00:54.166Z,20.69
2022-08-05T05:03:23.960Z,20.98
2022-08-05T05:06:35.868Z,21.13
2022-08-05T05:08:29.968Z,21.14
2022-08-05T05:10:56.796Z,21.14
2022-08-05T05:13:26.640Z,21.23
2022-08-05T05:16:02.193Z,21.20
2022-08-05T05:18:33.166Z,21.17
2022-08-05T05:21:00.793Z,21.05
2022-08-05T05:23:39.407Z,21.05
2022-08-05T05:26:02.096Z,21.19
2022-08-05T05:28:34.289Z,21.32
2022-08-05T05:31:05.615Z,21.22
2022-08-05T05:33:59.696Z,21.25
2022-08-05T05:36:08.438Z,21.25
2022-08-05T05:38:40.083Z,21.38
2022-08-05T05:41:12.213Z,21.38
2022-08-05T05:43:57.502Z,21.50
2022-08-05T05:46:17.530Z,21.22
2022-08-05T05:48:48.192Z,21.09
2022-08-05T05:51:23.724Z,21.23
2022-08-05T05:53:58.604Z,21.23
2022-08-05T05:56:32.732Z,20.98
2022-08-05T05:58:58.675Z,20.97
2022-08-05T06:01:36.951Z,21.08
2022-08-05T06:04:03.712Z,20.96
2022-08-05T06:06:34.775Z,21.16
2022-08-05T06:09:08.360Z,21.00
2022-08-05T06:11:39.375Z,20.94
2022-08-05T06:14:11.449Z,21.37
2022-08-05T06:16:41.216Z,21.36
2022-08-05T06:19:12.745Z,21.46
2022-08-05T06:21:49.742Z,21.35
2022-08-05T06:24:16.558Z,21.37
2022-08-05T06:26:51.241Z,21.58
2022-08-05T06:29:42.982Z,21.34
2022-08-05T06:31:51.079Z,21.52
2022-08-05T06:34:20.921Z,21.46
2022-08-05T06:36:57.566Z,21.22
2022-08-05T06:39:22.328Z,21.41
2022-08-05T06:41:53.712Z,21.38
2022-08-05T06:44:23.176Z,21.43
2022-08-05T06:46:54.346Z,21.77
2022-08-05T06:50:02.017Z,21.72
2022-08-05T06:51:57.087Z,21.70
2022-08-05T06:54:28.266Z,21.77
2022-08-05T06:57:58.118Z,21.44
2022-08-05T06:59:30.858Z,21.53
2022-08-05T07:02:02.331Z,21.34
2022-08-05T07:04:32.102Z,21.34
2022-08-05T07:07:02.461Z,21.56
2022-08-05T07:09:37.359Z,21.60
2022-08-05T07:12:06.641Z,21.78
2022-08-05T07:14:54.105Z,22.16
2022-08-05T07:17:59.459Z,22.13
2022-08-05T07:22:30.156Z,22.42
2022-08-05T07:25:23.028Z,22.47
2022-08-05T07:28:00.680Z,22.48
2022-08-05T07:30:22.331Z,22.16
2022-08-05T07:32:38.776Z,22.21
2022-08-05T07:36:02.517Z,22.29
2022-08-05T07:37:47.240Z,22.42
2022-08-05T07:40:26.623Z,22.42
2022-08-05T07:42:49.184Z,22.59
2022-08-05T07:45:56.639Z,22.54
2022-08-05T07:47:55.807Z,22.84
2022-08-05T07:50:28.854Z,23.06
2022-08-05T07:52:56.054Z,23.01
2022-08-05T07:55:44.335Z,22.98
2022-08-05T07:58:03.061Z,23.34
2022-08-05T08:00:29.641Z,23.51
2022-08-05T08:03:14.960Z,23.47
2022-08-05T08:05:30.733Z,23.76
2022-08-05T08:08:03.278Z,23.82
2022-08-05T08:10:32.750Z,24.21
2022-08-05T08:13:02.456Z,24.16
2022-08-05T08:16:33.505Z,24.16
2022-08-05T08:18:13.723Z,24.44
2022-08-05T08:20:45.220Z,24.67
2022-08-05T08:23:11.577Z,24.47
2022-08-05T08:26:00.197Z,24.19
2022-08-05T08:28:18.249Z,24.17
2022-08-05T08:30:47.862Z,24.16
2022-08-05T08:33:16.249Z,24.59
2022-08-05T08:35:52.741Z,24.77
2022-08-05T08:38:17.435Z,24.77
2022-08-05T08:40:51.693Z,25.20
2022-08-05T08:45:17.947Z,25.32
2022-08-05T08:45:55.233Z,25.57
2022-08-05T08:49:03.251Z,25.88
2022-08-05T08:51:22.115Z,25.47
2022-08-05T08:53:31.410Z,25.49
2022-08-05T08:56:06.028Z,24.79
2022-08-05T08:58:37.578Z,24.80
2022-08-05T09:01:11.092Z,24.55
2022-08-05T09:03:45.300Z,24.35
2022-08-05T09:06:18.512Z,24.34
2022-08-05T09:08:44.509Z,24.20
2022-08-05T09:11:14.994Z,24.22
2022-08-05T09:14:10.359Z,24.01
2022-08-05T09:16:16.868Z,24.30
2022-08-05T09:18:48.515Z,24.58
2022-08-05T09:21:21.261Z,25.09
2022-08-05T09:23:52.775Z,25.00
2022-08-05T09:26:23.187Z,24.80
2022-08-05T09:28:57.310Z,24.78
2022-08-05T09:32:42.167Z,24.92
2022-08-05T09:34:01.775Z,24.13
2022-08-05T09:36:55.716Z,24.13
2022-08-05T09:39:21.985Z,24.45
2022-08-05T09:41:59.939Z,25.00
2022-08-05T09:44:38.773Z,24.94
2022-08-05T09:47:17.337Z,25.51
2022-08-05T09:50:01.503Z,25.57
2022-08-05T09:52:31.167Z,25.53
2022-08-05T09:55:06.418Z,25.78
2022-08-05T09:57:45.151Z,26.10
2022-08-05T10:00:19.270Z,26.29
2022-08-05T10:02:51.866Z,26.42
2022-08-05T10:05:24.419Z,26.95
2022-08-05T10:08:35.823Z,27.00
2022-08-05T10:10:34.782Z,27.12
2022-08-05T10:13:09.688Z,26.49
2022-08-05T10:15:41.663Z,26.97
2022-08-05T10:18:23.600Z,27.47
2022-08-05T10:20:56.586Z,27.47
2022-08-05T10:23:59.052Z,27.52
2022-08-05T10:26:14.261Z,27.18
2022-08-05T10:28:45.036Z,27.17
2022-08-05T10:32:47.910Z,27.06
2022-08-05T10:33:52.291Z,27.53
2022-08-05T10:36:23.767Z,27.53
2022-08-05T10:38:55.008Z,27.63
2022-08-05T10:41:27.972Z,27.37
2022-08-05T10:44:07.724Z,27.89
2022-08-05T10:46:54.535Z,27.40
2022-08-05T10:49:33.078Z,27.43
2022-08-05T10:52:00.647Z,27.33
2022-08-05T10:54:57.012Z,27.73
2022-08-05T10:57:30.982Z,27.67
2022-08-05T11:00:20.485Z,27.32
2022-08-05T11:03:25.858Z,27.32
2022-08-05T11:05:41.490Z,27.59
2022-08-05T11:08:34.330Z,27.31
2022-08-05T11:10:50.397Z,27.91
2022-08-05T11:13:19.174Z,27.91
2022-08-05T11:16:00.937Z,27.79
2022-08-05T11:18:34.275Z,26.68
2022-08-05T11:21:12.019Z,26.65
2022-08-05T11:24:04.787Z,26.31
2022-08-05T11:26:28.710Z,26.31
2022-08-05T11:29:06.722Z,26.68
2022-08-05T11:31:56.930Z,26.60
2022-08-05T11:34:08.277Z,26.98
2022-08-05T11:36:47.163Z,27.01
2022-08-05T11:39:38.149Z,26.86
2022-08-05T11:42:11.457Z,27.04
2022-08-05T11:44:54.133Z,26.21
2022-08-05T11:47:19.935Z,26.66
2022-08-05T11:49:50.915Z,26.56
2022-08-05T11:52:31.007Z,26.73
2022-08-05T11:55:07.555Z,26.38
2022-08-05T11:58:08.074Z,26.34
2022-08-05T12:00:08.429Z,26.93
2022-08-05T12:02:40.165Z,27.64
2022-08-05T12:05:18.082Z,27.94
2022-08-05T12:08:09.295Z,28.50
2022-08-05T12:10:17.816Z,28.34
2022-08-05T12:12:59.536Z,28.71
2022-08-05T12:15:38.256Z,28.48
2022-08-05T12:18:03.041Z,28.32
2022-08-05T12:20:33.737Z,28.12
2022-08-05T12:25:56.963Z,27.51
2022-08-05T12:28:37.591Z,27.02
2022-08-05T12:31:07.536Z,27.21
2022-08-05T12:33:38.914Z,27.04
2022-08-05T12:36:11.321Z,26.85
2022-08-05T12:38:41.617Z,25.69
2022-08-05T12:41:14.781Z,25.97
2022-08-05T12:43:55.046Z,26.01
2022-08-05T12:46:29.363Z,25.47
2022-08-05T12:49:05.702Z,25.91
2022-08-05T12:52:13.117Z,25.96
2022-08-05T12:54:14.892Z,26.09
2022-08-05T12:56:45.186Z,26.62
2022-08-05T12:59:46.477Z,27.34
2022-08-05T13:02:07.945Z,26.76
2022-08-05T13:04:41.813Z,27.09
2022-08-05T13:07:19.497Z,27.07
2022-08-05T13:09:56.995Z,26.55
2022-08-05T13:12:28.409Z,26.94
2022-08-05T13:15:05.709Z,26.84
2022-08-05T13:17:41.810Z,26.77
2022-08-05T13:20:09.316Z,26.57
2022-08-05T13:22:46.322Z,27.15
2022-08-05T13:25:21.959Z,27.29
2022-08-05T13:27:52.791Z,27.66
2022-08-05T13:30:32.957Z,27.53
2022-08-05T13:32:57.203Z,27.37
2022-08-05T13:35:42.505Z,27.55
2022-08-05T13:38:04.866Z,27.74
2022-08-05T13:40:49.950Z,28.24
2022-08-05T13:43:03.172Z,27.71
2022-08-05T13:45:38.692Z,27.88
2022-08-05T13:48:08.761Z,27.71
2022-08-05T13:50:39.424Z,27.87
2022-08-05T13:53:15.997Z,28.39
2022-08-05T13:55:50.118Z,28.20
2022-08-05T13:58:13.074Z,28.21
2022-08-05T14:00:44.529Z,28.79
2022-08-05T14:03:16.122Z,29.07
2022-08-05T14:06:24.529Z,29.00
2022-08-05T14:08:20.155Z,29.00
2022-08-05T14:10:49.676Z,28.96
2022-08-05T14:13:19.439Z,28.56
2022-08-05T14:16:08.353Z,28.56
2022-08-05T14:18:23.043Z,28.61
2022-08-05T14:20:54.829Z,28.21
2022-08-05T14:23:28.078Z,27.92
2022-08-05T14:25:59.576Z,27.76
2022-08-05T14:28:30.660Z,27.52
2022-08-05T14:31:01.518Z,27.74
2022-08-05T14:33:56.322Z,28.60
2022-08-05T14:36:05.747Z,28.55
2022-08-05T14:38:37.194Z,28.83
2022-08-05T14:41:08.178Z,28.40
2022-08-05T14:43:59.519Z,27.06
2022-08-05T14:46:10.906Z,26.43
2022-08-05T14:48:41.447Z,26.72
2022-08-05T14:51:11.312Z,27.24
2022-08-05T14:53:44.383Z,27.98
2022-08-05T14:56:14.080Z,27.75
2022-08-05T14:58:47.809Z,27.66
2022-08-05T15:01:16.272Z,27.05
2022-08-05T15:03:46.589Z,26.94
2022-08-05T15:06:17.750Z,27.57
2022-08-05T15:08:58.656Z,28.05
2022-08-05T15:11:20.691Z,27.91
2022-08-05T15:13:52.162Z,27.47
2022-08-05T15:16:22.707Z,27.47
2022-08-05T15:18:52.660Z,27.53
2022-08-05T15:21:22.530Z,27.33
2022-08-05T15:23:54.086Z,27.09
2022-08-05T15:26:32.120Z,27.86
2022-08-05T15:28:55.245Z,27.86
2022-08-05T15:31:24.778Z,28.16
2022-08-05T15:34:18.593Z,28.30
2022-08-05T15:36:27.686Z,28.20
2022-08-05T15:40:40.991Z,27.95
2022-08-05T15:41:57.451Z,27.30
2022-08-05T15:44:00.657Z,27.64
2022-08-05T15:46:30.961Z,27.39
2022-08-05T15:49:09.900Z,27.39
2022-08-05T15:52:10.406Z,27.37
2022-08-05T15:54:08.407Z,27.21
2022-08-05T15:56:36.374Z,27.41
2022-08-05T15:59:06.424Z,27.24
2022-08-05T16:01:39.457Z,27.67
2022-08-05T16:04:10.432Z,27.77
2022-08-05T16:06:40.362Z,27.66
2022-08-05T16:09:10.608Z,27.19
2022-08-05T16:11:43.373Z,27.35
2022-08-05T16:14:17.105Z,27.65
2022-08-05T16:16:44.072Z,27.80
2022-08-05T16:19:25.590Z,27.44
2022-08-05T16:22:00.220Z,27.17
2022-08-05T16:24:40.259Z,27.45
2022-08-05T16:26:54.460Z,27.59
2022-08-05T16:29:26.549Z,28.08
2022-08-05T16:31:57.779Z,28.23
2022-08-05T16:34:28.034Z,27.76
2022-08-05T16:36:57.807Z,27.29
2022-08-05T16:40:04.463Z,27.17
2022-08-05T16:42:15.769Z,27.47
2022-08-05T16:44:31.536Z,27.96
2022-08-05T16:47:01.346Z,27.24
2022-08-05T16:49:31.184Z,26.44
2022-08-05T16:52:01.262Z,26.27
2022-08-05T16:54:33.111Z,26.39
2022-08-05T16:57:03.054Z,26.03
2022-08-05T16:59:34.516Z,25.79
2022-08-05T17:02:08.155Z,25.66
2022-08-05T17:04:40.416Z,25.21
2022-08-05T17:07:11.444Z,24.81
2022-08-05T17:09:57.844Z,24.79
2022-08-05T17:12:13.589Z,24.87
2022-08-05T17:14:45.074Z,25.35
2022-08-05T17:17:15.425Z,25.68
2022-08-05T17:19:46.402Z,25.69
2022-08-05T17:22:17.823Z,25.79
2022-08-05T17:24:57.009Z,25.78
2022-08-05T17:27:19.896Z,25.87
2022-08-05T17:29:59.490Z,25.61
2022-08-05T17:32:21.525Z,26.13
2022-08-05T17:34:53.069Z,26.12
2022-08-05T17:37:40.066Z,26.07
2022-08-05T17:39:55.182Z,26.29
2022-08-05T17:42:32.383Z,27.35
2022-08-05T17:44:58.159Z,27.30
2022-08-05T17:47:28.259Z,27.06
2022-08-05T17:50:10.457Z,27.71
2022-08-05T17:52:31.336Z,27.94
2022-08-05T17:55:03.095Z,27.66
2022-08-05T17:57:33.011Z,27.18
2022-08-05T18:00:05.785Z,27.01
2022-08-05T18:02:35.410Z,26.53
2022-08-05T18:05:07.951Z,24.69
2022-08-05T18:07:42.228Z,24.13
2022-08-05T18:10:20.436Z,23.62
2022-08-05T18:12:44.218Z,23.19
2022-08-05T18:15:15.410Z,22.92
2022-08-05T18:18:01.415Z,22.21
2022-08-05T18:20:16.493Z,22.09
2022-08-05T18:22:54.845Z,22.00
2022-08-05T18:25:18.171Z,22.15
2022-08-05T18:27:52.599Z,21.93
2022-08-05T18:30:19.928Z,21.54
2022-08-05T18:32:53.322Z,21.37
2022-08-05T18:35:49.366Z,21.51
2022-08-05T18:37:52.776Z,21.59
2022-08-05T18:40:34.071Z,21.73
2022-08-05T18:42:56.631Z,21.67
2022-08-05T18:45:41.847Z,21.17
2022-08-05T18:47:58.496Z,21.17
2022-08-05T18:50:47.177Z,21.13
2022-08-05T18:53:22.207Z,20.98
2022-08-05T18:55:48.372Z,20.89
2022-08-05T18:58:18.606Z,20.96
2022-08-05T19:00:49.897Z,20.84
2022-08-05T19:03:19.662Z,20.75
2022-08-05T19:06:12.764Z,20.58
2022-08-05T19:08:30.759Z,20.51
2022-08-05T19:10:55.120Z,20.23
2022-08-05T19:13:25.809Z,20.06
2022-08-05T19:16:03.630Z,20.18
2022-08-05T19:18:28.863Z,20.06
2022-08-05T19:20:59.505Z,19.93
2022-08-05T19:24:08.091Z,19.93
2022-08-05T19:26:03.144Z,19.91
2022-08-05T19:28:34.554Z,19.92
2022-08-05T19:31:05.738Z,19.88
2022-08-05T19:33:37.626Z,19.84
2022-08-05T19:36:11.500Z,19.62
2022-08-05T19:38:43.797Z,19.91
2022-08-05T19:41:13.750Z,19.67
2022-08-05T19:44:06.429Z,19.48
2022-08-05T19:46:16.672Z,19.73
2022-08-05T19:48:48.415Z,19.66
2022-08-05T19:51:59.797Z,19.66
2022-08-05T19:54:04.242Z,19.68
2022-08-05T19:56:21.245Z,19.72
2022-08-05T19:58:54.054Z,19.88
2022-08-05T20:01:28.527Z,19.81
2022-08-05T20:03:55.873Z,19.78
2022-08-05T20:06:29.296Z,19.72
2022-08-05T20:09:00.871Z,19.72
2022-08-05T20:11:30.032Z,19.60
2022-08-05T20:14:12.762Z,19.58
2022-08-05T20:16:34.106Z,19.37
2022-08-05T20:19:04.232Z,19.31
2022-08-05T20:21:34.062Z,19.31
2022-08-05T20:24:07.163Z,19.32
2022-08-05T20:26:38.627Z,19.15
2022-08-05T20:29:08.415Z,19.03
2022-08-05T20:31:51.281Z,19.00
2022-08-05T20:34:12.704Z,18.96
2022-08-05T20:36:43.431Z,18.98
2022-08-05T20:39:16.790Z,18.80
2022-08-05T20:41:47.885Z,18.74
2022-08-05T20:44:29.592Z,18.56
2022-08-05T20:46:49.892Z,18.65
2022-08-05T20:49:24.454Z,18.70
2022-08-05T20:51:54.025Z,18.69
2022-08-05T20:54:43.673Z,18.60
2022-08-05T20:57:01.040Z,18.42
2022-08-05T21:00:10.351Z,18.51
2022-08-05T21:02:05.218Z,18.55
2022-08-05T21:04:36.998Z,18.44
2022-08-05T21:07:08.978Z,18.34
2022-08-05T21:09:53.498Z,18.27
2022-08-05T21:12:11.971Z,18.12
2022-08-05T21:14:42.078Z,18.18
2022-08-05T21:17:13.664Z,18.18
2022-08-05T21:19:47.889Z,18.05
2022-08-05T21:22:14.965Z,18.05
2022-08-05T21:24:48.921Z,18.09
2022-08-05T21:27:18.223Z,18.08
2022-08-05T21:29:50.908Z,17.99
2022-08-05T21:32:20.819Z,17.87
2022-08-05T21:35:06.688Z,17.86
2022-08-05T21:37:23.941Z,17.78
2022-08-05T21:39:53.821Z,17.78
2022-08-05T21:42:41.458Z,17.72
2022-08-05T21:44:55.086Z,17.69
2022-08-05T21:47:55.273Z,17.66
2022-08-05T21:50:01.266Z,17.57
2022-08-05T21:52:30.386Z,17.50
2022-08-05T21:55:06.996Z,17.35
2022-08-05T21:57:32.889Z,17.33
2022-08-05T22:00:05.942Z,17.47
2022-08-05T22:02:37.880Z,17.48
2022-08-05T22:05:09.096Z,17.36
2022-08-05T22:07:58.401Z,17.30
2022-08-05T22:10:12.263Z,17.38
2022-08-05T22:12:44.761Z,17.40
2022-08-05T22:15:16.575Z,17.30
2022-08-05T22:17:48.808Z,17.22
2022-08-05T22:20:19.251Z,17.13
2022-08-05T22:23:16.758Z,17.08
2022-08-05T22:26:09.977Z,17.08
2022-08-05T22:28:29.430Z,16.98
2022-08-05T22:31:02.355Z,17.07
2022-08-05T22:33:55.818Z,17.05
2022-08-05T22:36:02.150Z,16.88
2022-08-05T22:38:33.126Z,16.88
2022-08-05T22:41:09.607Z,16.95
2022-08-05T22:43:36.736Z,16.87
2022-08-05T22:46:13.043Z,16.88
2022-08-05T22:48:40.126Z,16.84
2022-08-05T22:51:16.085Z,16.76
2022-08-05T22:53:42.838Z,16.74
2022-08-05T22:56:14.055Z,16.53
2022-08-05T22:58:43.769Z,16.50
2022-08-05T23:01:13.743Z,16.48
2022-08-05T23:03:57.665Z,16.52
2022-08-05T23:06:15.135Z,16.59
2022-08-05T23:08:46.575Z,16.46
2022-08-05T23:11:18.042Z,16.31
2022-08-05T23:13:48.505Z,16.34
2022-08-05T23:16:26.182Z,16.32
2022-08-05T23:18:52.858Z,16.21
2022-08-05T23:21:24.609Z,16.20
2022-08-05T23:23:56.053Z,16.20
2022-08-05T23:26:25.869Z,16.03
2022-08-05T23:28:57.222Z,16.00
2022-08-05T23:31:28.487Z,15.96
2022-08-05T23:34:06.170Z,15.96
2022-08-05T23:36:38.389Z,16.04
2022-08-05T23:39:03.713Z,15.89
2022-08-05T23:41:34.392Z,15.86
2022-08-05T23:44:08.650Z,15.80
2022-08-05T23:46:39.375Z,15.68
2022-08-05T23:49:16.054Z,15.60
2022-08-05T23:51:58.661Z,15.70
2022-08-05T23:54:36.354Z,15.78
2022-08-05T23:57:03.539Z,15.64
2022-08-05T23:59:37.561Z,15.53
